Tiempo atmosférico en la estación meteorológica de Láujar De Andarax, Almería (1510 m.)



Fecha
DESCASC
Temp. máxima en grados centígrados (hora)
DESCASC
Temp. mínima en grados centígrados (hora)
DESCASC
Temp. media en grados centígrados
DESCASC
Racha de viento máxima en m/sg (hora)
DESCASC
Velocidad máxima media en intervalos de 10 minutos(hora)
DESCASC
Precipitaciones diarias en mm
DESCASC
Precipitaciones de 00:00 a 06:00 en mm
DESCASC
Precipitaciones de 06:00 a 12:00 en mm
DESCASC
Precipitaciones de 12:00 a 18:00 en mm
DESCASC
Precipitaciones de 18:00 a 24:00 en mm
DESCASC
23-06-2019 27.3 (17:30) 16.5 (01:20) 21.9 8.06 (16:10) 4.44 (15:40) 0 0 0 0 0
22-06-2019 24.7 (18:40) 14.4 (07:10) 19.6 8.89 (16:30) 4.72 (16:30) 0 0 0 0 0
21-06-2019 24.8 (17:40) 14.7 (05:30) 19.7 9.44 (14:20) 5.56 (16:40) 0 0 0 0 0
20-06-2019 27.1 (16:10) 15.2 (00:00) 21.2 12.22 (18:30) 8.89 (18:20) 0 0 0 0 0
19-06-2019 26.4 (18:30) 15.3 (00:00) 20.8 -- (--) -- (--) 0 0 0 0 0
18-06-2019 25.8 (17:00) 14.1 (00:00) 19.9 -- (--) -- (--) 0 0 0 0 0
17-06-2019 24.2 (17:40) 13.1 (00:00) 18.7 10.83 (15:50) 7.22 (19:30) 0 0 0 0 0
16-06-2019 22.3 (17:50) 12.6 (00:00) 17.4 9.17 (18:20) 6.39 (18:20) 0 0 0 0 0
15-06-2019 23.9 (14:40) 11.7 (00:00) 17.8 10.56 (14:00) 7.22 (14:00) 0 0 0 0 0
14-06-2019 21.3 (17:30) 10.3 (00:00) 15.8 13.33 (13:40) 10 (16:20) 3.2 3.2 0 0 0
13-06-2019 21.8 (14:00) 8.6 (00:00) 15.2 7.78 (16:10) 5.28 (16:10) 0 0 0 0 0
12-06-2019 20.4 (16:10) 8.5 (00:00) 14.4 10.56 (15:50) 6.67 (16:30) 0 0 0 0 0
11-06-2019 24.4 (17:00) 11.7 (00:00) 18 12.78 (20:30) 8.89 (16:10) 0 0 0 0 0
10-06-2019 21.2 (13:50) 12.7 (00:00) 17 11.94 (16:20) 7.5 (15:30) 0 0 0 0 0
09-06-2019 21.6 (18:00) 10.8 (00:00) 16.2 10.83 (17:20) 7.22 (17:30) 0 0 0 0 0
08-06-2019 22.4 (16:20) 12 (00:00) 17.2 10 (14:50) 5.56 (16:30) 0 0 0 0 0
07-06-2019 22.7 (17:30) 11.9 (00:00) 17.3 10.56 (14:40) 6.39 (02:30) 0 0 0 0 0
06-06-2019 21.2 (17:00) 10.3 (00:00) 15.8 11.39 (14:40) 7.78 (15:10) 0 0 0 0 0
05-06-2019 21.1 (15:30) 10.6 (00:00) 15.9 12.5 (03:20) 8.89 (04:50) 0 0 0 0 0
04-06-2019 26 (16:20) 15.6 (00:00) 20.8 12.22 (13:10) 8.33 (15:10) 0 0 0 0 0
03-06-2019 26.5 (16:00) 16 (00:00) 21.3 7.78 (13:20) 4.72 (14:30) 0 0 0 0 0
02-06-2019 23.9 (15:40) 12.7 (00:00) 18.3 8.33 (16:40) 4.17 (15:20) 0 0 0 0 0
01-06-2019 22.8 (16:40) 11.4 (00:00) 17.1 8.61 (11:50) 4.72 (11:50) 0 0 0 0 0
31-05-2019 21 (15:40) 10 (00:00) 15.5 11.39 (12:50) 5 (12:50) 0 0 0 0 0
30-05-2019 19.4 (16:40) 7.5 (00:00) 13.4 9.17 (16:30) 4.72 (14:40) 0 0 0 0 0
29-05-2019 20.8 (16:30) 9.9 (00:00) 15.3 10.56 (14:10) 6.67 (14:10) 0 0 0 0 0
28-05-2019 24 (14:50) 16.1 (00:00) 20.1 10.28 (14:20) 7.22 (03:50) 0 0 0 0 0
27-05-2019 23 (17:10) 11.9 (00:00) 17.4 11.67 (16:20) 8.89 (07:30) 0 0 0 0 0
26-05-2019 18.1 (16:10) 8.9 (00:00) 13.5 13.61 (15:50) 9.17 (15:10) 0 0 0 0 0
25-05-2019 16.3 (16:00) 6.6 (00:00) 11.4 9.72 (16:20) 6.39 (16:20) 0 0 0 0 0

Gráficas

Temp. máximas Temp. mínimas Temp. medias Precipitaciones Rachas de viento máximas Velocidades máximas media en intervalos de 10 minutos

Datos horarios

Fecha y hora oficial Temperatura (ºC) Velocidad del viento (km/h) Dirección del viento Racha (km/h) Dirección de racha Precipitación (mm) Presión (hPa) Tendencia (hPa) Humedad (%)
2019-06-23 23:00:00 17.4 8 Sudeste 13 Sudeste 0 -- -- 55
2019-06-23 22:00:00 17.7 6 Sudeste 13 Sur 0 -- -- 56
2019-06-23 21:00:00 20.8 3 Sudeste 9 Sur 0 -- -- 49
2019-06-23 20:00:00 22.8 8 Sudoeste 15 Sudoeste 0 -- -- 47
2019-06-23 19:00:00 25.7 8 Sudoeste 22 Sur 0 -- -- 31
2019-06-23 18:00:00 26.6 10 Sur 22 Sudoeste 0 -- -- 28
2019-06-23 17:00:00 27 13 Sudoeste 29 Sudoeste 0 -- -- 26
2019-06-23 16:00:00 27.2 13 Sudoeste 27 Sur 0 -- -- 25
2019-06-23 15:00:00 26.5 14 Sudoeste 27 Sur 0 -- -- 26
2019-06-23 14:00:00 26.3 13 Sudoeste 26 Sudoeste 0 -- -- 25
2019-06-23 13:00:00 25.5 14 Sudoeste 24 Sur 0 -- -- 27
2019-06-23 12:00:00 25.3 14 Sudoeste 26 Sur 0 -- -- 24
2019-06-23 11:00:00 25.2 11 Sur 21 Sur 0 -- -- 24
2019-06-23 10:00:00 23.1 6 Sur 19 Sudeste 0 -- -- 29
2019-06-23 09:00:00 21 8 Sudeste 19 Sudeste 0 -- -- 32
2019-06-23 08:00:00 18.3 8 Sudeste 19 Sudeste 0 -- -- 35
2019-06-23 07:00:00 17.3 9 Sudeste 20 Este 0 -- -- 35
2019-06-23 06:00:00 17.5 12 Sudeste 23 Sudeste 0 -- -- 34
2019-06-23 05:00:00 17.3 8 Sudeste 20 Sur 0 -- -- 33
2019-06-23 04:00:00 17.6 10 Sudeste 26 Sur 0 -- -- 35
2019-06-23 03:00:00 17.1 10 Sudeste 22 Sur 0 -- -- 41
2019-06-23 02:00:00 16.8 9 Sudeste 17 Sudeste 0 -- -- 39
2019-06-23 01:00:00 16.8 10 Sur 18 Sur 0 -- -- 44
2019-06-23 00:00:00 16.7 8 Sudeste 20 Sur 0 -- -- 50
2019-06-22 23:00:00 16.3 7 Sur 16 Sur 0 -- -- 55
2019-06-22 22:00:00 16.7 6 Sur 13 Sur 0 -- -- 60
2019-06-22 21:00:00 20.5 0 Calma 16 Sudoeste 0 -- -- 54
2019-06-22 20:00:00 20.5 11 Sudoeste 17 Sudoeste 0 -- -- 57
2019-06-22 19:00:00 22.9 8 Sudoeste 27 Oeste 0 -- -- 53
2019-06-22 18:00:00 24.2 15 Oeste 28 Oeste 0 -- -- 46
2019-06-22 17:00:00 23.4 13 Sudoeste 32 Sudoeste 0 -- -- 48
2019-06-22 16:00:00 23.6 14 Sudoeste 28 Oeste 0 -- -- 48
2019-06-22 15:00:00 23.6 15 Sudoeste 28 Sudoeste 0 -- -- 46
2019-06-22 14:00:00 22.9 13 Noroeste 28 Sudoeste 0 -- -- 49
2019-06-22 13:00:00 22.3 15 Noroeste 27 Noroeste 0 -- -- 49
2019-06-22 12:00:00 21.8 13 Noroeste 21 Oeste 0 -- -- 49
2019-06-22 11:00:00 20.4 7 Oeste 17 Oeste 0 -- -- 49
2019-06-22 10:00:00 20.3 6 Sur 16 Sudeste 0 -- -- 43
2019-06-22 09:00:00 18.4 8 Sudeste 20 Sur 0 -- -- 48
2019-06-22 08:00:00 15.7 8 Sudeste 16 Sudeste 0 -- -- 54
2019-06-22 07:00:00 14.6 6 Sudeste 17 Sudeste 0 -- -- 59
2019-06-22 06:00:00 15.5 10 Sudeste 19 Sudeste 0 -- -- 56
2019-06-22 05:00:00 15 5 Sudeste 10 Sudeste 0 -- -- 68
2019-06-22 04:00:00 15.8 3 Sudeste 6 Este 0 -- -- 64
2019-06-22 03:00:00 16.3 3 Sudeste 8 Nordeste 0 -- -- 62
2019-06-22 02:00:00 16.9 2 Sudeste 6 Sudeste 0 -- -- 58
2019-06-22 01:00:00 16.8 5 Sudeste 10 Sudeste 0 -- -- 62
2019-06-22 00:00:00 16.1 6 Sudeste 12 Sudeste 0 -- -- 65
2019-06-21 23:00:00 16.2 7 Sudeste 10 Sur 0 -- -- 70
2019-06-21 22:00:00 16.3 4 Sur 6 Oeste 0 -- -- 69
2019-06-21 21:00:00 18.7 5 Noroeste 16 Oeste 0 -- -- 61
2019-06-21 20:00:00 21.8 12 Noroeste 19 Noroeste 0 -- -- 53
2019-06-21 19:00:00 24 13 Noroeste 24 Noroeste 0 -- -- 47
2019-06-21 18:00:00 23 15 Oeste 24 Noroeste 0 -- -- 47
2019-06-21 17:00:00 24.4 13 Noroeste 30 Noroeste 0 -- -- 44
2019-06-21 16:00:00 24.2 18 Noroeste 30 Noroeste 0 -- -- 44
2019-06-21 15:00:00 23.3 17 Noroeste 34 Noroeste 0 -- -- 46
2019-06-21 14:00:00 23.5 16 Noroeste 27 Noroeste 0 -- -- 45
2019-06-21 13:00:00 21.2 14 Oeste 26 Noroeste 0 -- -- 48
2019-06-21 12:00:00 20.8 13 Oeste 26 Oeste 0 -- -- 42
2019-06-21 11:00:00 19.5 8 Noroeste 19 Oeste 0 -- -- 43
2019-06-21 10:00:00 18.7 8 Oeste 15 Oeste 0 -- -- 44
2019-06-21 09:00:00 17.6 2 Oeste 5 Sudeste 0 -- -- 44
2019-06-21 08:00:00 14.7 0 Calma 4 Nordeste 0 -- -- 48
2019-06-21 07:00:00 14.8 2 Nordeste 5 Sudeste 0 -- -- 50
2019-06-21 06:00:00 14.9 2 Este 6 Nordeste 0 -- -- 52
2019-06-21 05:00:00 15 2 Nordeste 6 Nordeste 0 -- -- 50
2019-06-21 04:00:00 15.1 4 Nordeste 11 Noroeste 0 -- -- 52
2019-06-21 03:00:00 16.2 5 Noroeste 10 Norte 0 -- -- 47
2019-06-21 02:00:00 17.5 2 Norte 8 Nordeste 0 -- -- 40
2019-06-21 01:00:00 17.8 0 Calma 7 Nordeste 0 -- -- 38
2019-06-21 00:00:00 17.6 8 Norte 14 Norte 0 -- -- 40
2019-06-20 23:00:00 17.1 3 Sudeste 9 Noroeste 0 -- -- 47
2019-06-20 22:00:00 17.3 8 Noroeste 24 Noroeste 0 -- -- 42
2019-06-20 21:00:00 21.7 20 Noroeste 28 Noroeste 0 -- -- 29
2019-06-20 20:00:00 24.5 19 Noroeste 36 Noroeste 0 -- -- 24
2019-06-20 19:00:00 24.8 28 Noroeste 44 Noroeste 0 -- -- 21
2019-06-20 18:00:00 25.3 31 Norte 43 Noroeste 0 -- -- 22
2019-06-20 17:00:00 25.5 24 Noroeste 41 Norte 0 -- -- 22
2019-06-20 16:00:00 25.7 24 Noroeste 41 Noroeste 0 -- -- 20
2019-06-20 15:00:00 25.2 23 Noroeste 38 Noroeste 0 -- -- 20
2019-06-20 14:00:00 24.4 20 Noroeste 35 Noroeste 0 -- -- 21
2019-06-20 13:00:00 23.7 21 Noroeste 36 Oeste 0 -- -- 24
2019-06-20 12:00:00 22.3 15 Noroeste 27 Oeste 0 -- -- 24
2019-06-20 11:00:00 21.2 15 Noroeste 23 Norte 0 -- -- 21
2019-06-20 10:00:00 20.2 11 Noroeste 21 Noroeste 0 -- -- 22
2019-06-20 09:00:00 18.7 10 Noroeste 17 Norte 0 -- -- 31
2019-06-20 08:00:00 17.3 2 Nordeste 8 Nordeste 0 -- -- 30
2019-06-20 07:00:00 15.5 4 Nordeste 10 Nordeste 0 -- -- 40
2019-06-20 06:00:00 15.6 7 Norte 10 Norte 0 -- -- 42
2019-06-20 05:00:00 16.1 8 Norte 12 Norte 0 -- -- 39
2019-06-20 04:00:00 17.1 2 Norte 10 Noroeste 0 -- -- 39
2019-06-20 03:00:00 16.9 5 Norte 9 Norte 0 -- -- 42
2019-06-20 02:00:00 17.6 4 Nordeste 6 Nordeste 0 -- -- 39
2019-06-20 01:00:00 18.1 3 Nordeste 6 Nordeste 0 -- -- 34
2019-06-20 00:00:00 19.2 3 Nordeste 6 Noroeste 0 -- -- 30
2019-06-19 23:00:00 19.6 0 Calma 6 Oeste 0 -- -- 30
2019-06-19 22:00:00 20 2 Noroeste 8 Noroeste 0 -- -- 34
2019-06-19 21:00:00 24.5 5 Norte 21 Noroeste 0 -- -- 26
2019-06-19 20:00:00 25 19 Noroeste 32 Norte 0 -- -- 25
2019-06-19 19:00:00 -- -- -- -- -- -- -- -- --
2019-06-19 18:00:00 25.8 20 Noroeste 31 Noroeste 0 -- -- 24
2019-06-19 17:00:00 24.6 19 Noroeste 36 Noroeste 0 -- -- 23
2019-06-19 16:00:00 25.3 22 Noroeste 35 Oeste 0 -- -- 21
2019-06-19 15:00:00 25 19 Norte 40 Noroeste 0 -- -- 21
2019-06-19 14:00:00 25.1 22 Noroeste 36 Noroeste 0 -- -- 23
2019-06-19 13:00:00 23.6 21 Noroeste 34 Noroeste 0 -- -- 27
2019-06-19 12:00:00 22.4 15 Noroeste 30 Noroeste 0 -- -- 27
2019-06-19 11:00:00 20.8 14 Noroeste 23 Noroeste 0 -- -- 21
2019-06-19 10:00:00 19.8 12 Noroeste 17 Noroeste 0 -- -- 22
2019-06-19 09:00:00 18.4 11 Noroeste 15 Noroeste 0 -- -- 24
2019-06-19 08:00:00 15.9 4 Noroeste 8 Norte 0 -- -- 24
2019-06-19 07:00:00 15.5 9 Norte 21 Noroeste 0 -- -- 25
2019-06-19 06:00:00 16.1 17 Norte 23 Noroeste 0 -- -- 27
2019-06-19 05:00:00 16.6 18 Norte 31 Norte 0 -- -- 24
2019-06-19 04:00:00 16.8 18 Norte 27 Norte 0 -- -- 26
2019-06-19 03:00:00 16.3 12 Norte 23 Norte 0 -- -- 29
2019-06-19 02:00:00 17 15 Norte 20 Norte 0 -- -- 26
2019-06-19 01:00:00 17.5 16 Norte 20 Norte 0 -- -- 21
2019-06-19 00:00:00 17.3 10 Norte 17 Norte 0 -- -- 23
2019-06-18 23:00:00 -- -- -- -- -- -- -- -- --
2019-06-18 22:00:00 17.7 8 Norte 19 Norte 0 -- -- 32
2019-06-18 21:00:00 22.4 14 Noroeste 26 Norte 0 -- -- 34
2019-06-18 20:00:00 -- -- -- -- -- -- -- -- --
2019-06-18 19:00:00 24.4 19 Noroeste 31 Noroeste 0 -- -- 35
2019-06-18 18:00:00 25.7 19 Noroeste 33 Noroeste 0 -- -- 32
2019-06-18 17:00:00 25.8 18 Noroeste 34 Noroeste 0 -- -- 32
2019-06-18 16:00:00 25.1 21 Noroeste 39 Noroeste 0 -- -- 31
2019-06-18 15:00:00 24.4 17 Noroeste 37 Noroeste 0 -- -- 29
2019-06-18 14:00:00 24.2 22 Noroeste 33 Oeste 0 -- -- 27
2019-06-18 13:00:00 22.8 21 Noroeste 32 Noroeste 0 -- -- 32
2019-06-18 12:00:00 22.2 17 Noroeste 28 Noroeste 0 -- -- 26
2019-06-18 11:00:00 21.4 17 Noroeste 27 Noroeste 0 -- -- 25
2019-06-18 10:00:00 20.4 15 Noroeste 22 Norte 0 -- -- 27
2019-06-18 09:00:00 18.4 8 Noroeste 14 Noroeste 0 -- -- 31
2019-06-18 08:00:00 14.6 10 Norte 18 Norte 0 -- -- 35
2019-06-18 07:00:00 14.8 13 Norte 20 Norte 0 -- -- 35
2019-06-18 06:00:00 15.6 7 Noroeste 14 Oeste 0 -- -- 38
2019-06-18 05:00:00 14.5 8 Nordeste 14 Norte 0 -- -- 41
2019-06-18 04:00:00 14.9 6 Nordeste 11 Norte 0 -- -- 39
2019-06-18 03:00:00 14.5 8 Norte 13 Norte 0 -- -- 37
2019-06-18 02:00:00 14.6 12 Norte 17 Norte 0 -- -- 33
2019-06-18 01:00:00 15.1 13 Noroeste 21 Noroeste 0 -- -- 37
2019-06-18 00:00:00 15.7 0 Calma 6 Noroeste 0 -- -- 38
2019-06-17 23:00:00 15.6 5 Norte 8 Norte 0 -- -- 40
2019-06-17 22:00:00 15.5 8 Norte 13 Norte 0 -- -- 39
2019-06-17 21:00:00 19.6 12 Noroeste 24 Noroeste 0 -- -- 33
2019-06-17 20:00:00 22 22 Noroeste 34 Noroeste 0 -- -- 30
2019-06-17 19:00:00 23.6 23 Noroeste 38 Noroeste 0 -- -- 28
2019-06-17 18:00:00 23.7 22 Noroeste 36 Noroeste 0 -- -- 29
2019-06-17 17:00:00 23 24 Noroeste 36 Noroeste 0 -- -- 30
2019-06-17 16:00:00 23.9 24 Noroeste 39 Noroeste 0 -- -- 30
2019-06-17 15:00:00 23.1 18 Noroeste 30 Noroeste 0 -- -- 34
2019-06-17 14:00:00 21.6 14 Oeste 27 Oeste 0 -- -- 34
2019-06-17 13:00:00 20.8 12 Oeste 25 Oeste 0 -- -- 47
2019-06-17 12:00:00 19.6 9 Oeste 19 Oeste 0 -- -- 48
2019-06-17 11:00:00 19.3 9 Oeste 18 Oeste 0 -- -- 45
2019-06-17 10:00:00 17.3 7 Oeste 10 Oeste 0 -- -- 52
2019-06-17 09:00:00 17.4 3 Sur 8 Sudeste 0 -- -- 42
2019-06-17 08:00:00 14.6 2 Sudoeste 5 Sudeste 0 -- -- 49
2019-06-17 07:00:00 13.6 0 Calma 8 Noroeste 0 -- -- 51
2019-06-17 06:00:00 14 2 Noroeste 6 Nordeste 0 -- -- 50
2019-06-17 05:00:00 14.3 4 Nordeste 6 Este 0 -- -- 49
2019-06-17 04:00:00 14.1 3 Este 7 Nordeste 0 -- -- 50
2019-06-17 03:00:00 14 0 Calma 4 Nordeste 0 -- -- 59
2019-06-17 02:00:00 14.1 2 Este 5 Este 0 -- -- 63
2019-06-17 01:00:00 13.5 3 Este 6 Este 0 -- -- 63
2019-06-17 00:00:00 13.1 3 Este 8 Sudeste 0 -- -- 72
2019-06-16 23:00:00 13 4 Sudeste 8 Sur 0 -- -- 74
2019-06-16 22:00:00 13.2 4 Sur 12 Sur 0 -- -- 76
2019-06-16 21:00:00 16.2 4 Sur 13 Noroeste 0 -- -- 61
2019-06-16 20:00:00 19.4 7 Noroeste 20 Noroeste 0 -- -- 52
2019-06-16 19:00:00 20.6 13 Noroeste 33 Noroeste 0 -- -- 48
2019-06-16 18:00:00 22.3 15 Noroeste 24 Noroeste 0 -- -- 39
2019-06-16 17:00:00 21.6 9 Oeste 27 Noroeste 0 -- -- 39
2019-06-16 16:00:00 20.4 15 Oeste 26 Oeste 0 -- -- 28
2019-06-16 15:00:00 21.5 12 Noroeste 31 Noroeste 0 -- -- 30
2019-06-16 14:00:00 17.7 5 Sudoeste 14 Sudoeste 0 -- -- 32
2019-06-16 13:00:00 19 8 Sur 22 Sudoeste 0 -- -- 26
2019-06-16 12:00:00 19.8 10 Sudoeste 21 Sur 0 -- -- 26
2019-06-16 11:00:00 20 8 Sur 17 Sudoeste 0 -- -- 25
2019-06-16 10:00:00 19.2 6 Sur 18 Sur 0 -- -- 31
2019-06-16 09:00:00 17.9 6 Sudeste 15 Sudeste 0 -- -- 41
2019-06-16 08:00:00 15.7 6 Sudeste 15 Sudeste 0 -- -- 42
2019-06-16 07:00:00 13.1 8 Sudeste 15 Sudeste 0 -- -- 49
2019-06-16 06:00:00 13.8 6 Sudeste 12 Sudeste 0 -- -- 48
2019-06-16 05:00:00 14.5 6 Sudeste 12 Sudeste 0 -- -- 47
2019-06-16 04:00:00 15.6 8 Sudeste 13 Sudeste 0 -- -- 44
2019-06-16 03:00:00 15.4 6 Sudeste 10 Sudeste 0 -- -- 45
2019-06-16 02:00:00 15.6 5 Sudeste 9 Sudeste 0 -- -- 46
2019-06-16 01:00:00 16.1 5 Sudeste 7 Sudeste 0 -- -- 40
2019-06-16 00:00:00 16.8 4 Sudeste 5 Sur 0 -- -- 40
2019-06-15 23:00:00 15.9 5 Sudeste 8 Sudeste 0 -- -- 45
2019-06-15 22:00:00 16.7 3 Nordeste 7 Nordeste 0 -- -- 42
2019-06-15 21:00:00 20.9 5 Norte 15 Noroeste 0 -- -- 38
2019-06-15 20:00:00 23.2 12 Noroeste 21 Noroeste 0 -- -- 33
2019-06-15 19:00:00 22.6 14 Noroeste 25 Noroeste 0 -- -- 33
2019-06-15 18:00:00 23.2 14 Noroeste 30 Noroeste 0 -- -- 32
2019-06-15 17:00:00 23.6 17 Noroeste 31 Noroeste 0 -- -- 30
2019-06-15 16:00:00 22.8 21 Noroeste 32 Norte 0 -- -- 32
2019-06-15 15:00:00 22.8 20 Noroeste 36 Noroeste 0 -- -- 31
2019-06-15 14:00:00 22.8 26 Noroeste 38 Oeste 0 -- -- 27
2019-06-15 13:00:00 22.4 15 Noroeste 27 Noroeste 0 -- -- 22
2019-06-15 12:00:00 20.2 10 Oeste 20 Oeste 0 -- -- 19
2019-06-15 11:00:00 18.9 7 Oeste 15 Oeste 0 -- -- 22
2019-06-15 10:00:00 18.1 7 Noroeste 13 Noroeste 0 -- -- 25
2019-06-15 09:00:00 16.5 0 Calma 6 Nordeste 0 -- -- 26
2019-06-15 08:00:00 14.2 4 Sudeste 9 Este 0 -- -- 26
2019-06-15 07:00:00 13.3 3 Sudeste 12 Nordeste 0 -- -- 24
2019-06-15 06:00:00 12.4 6 Nordeste 9 Nordeste 0 -- -- 31
2019-06-15 05:00:00 11.7 7 Norte 13 Norte 0 -- -- 32
2019-06-15 04:00:00 12.9 3 Norte 11 Noroeste 0 -- -- 30
2019-06-15 03:00:00 12.1 7 Norte 13 Noroeste 0 -- -- 38
2019-06-15 02:00:00 12.2 6 Norte 18 Noroeste 0 -- -- 42
2019-06-15 01:00:00 13 8 Noroeste 19 Oeste 0 -- -- 44
2019-06-15 00:00:00 13.7 3 Nordeste 9 Norte 0 -- -- 43
2019-06-14 23:00:00 13.7 5 Norte 10 Noroeste 0 -- -- 48
2019-06-14 22:00:00 13 2 Oeste 14 Noroeste 0 -- -- 61
2019-06-14 21:00:00 16 9 Norte 24 Noroeste 0 -- -- 51
2019-06-14 20:00:00 18.7 19 Noroeste 37 Noroeste 0 -- -- 41
2019-06-14 19:00:00 19.7 27 Noroeste 39 Noroeste 0 -- -- 38
2019-06-14 18:00:00 20.9 28 Noroeste 38 Noroeste 0 -- -- 39
2019-06-14 17:00:00 20.4 29 Noroeste 47 Noroeste 0 -- -- 40
2019-06-14 16:00:00 19.6 32 Noroeste 44 Noroeste 0 -- -- 40
2019-06-14 15:00:00 19.5 28 Noroeste 44 Noroeste 0 -- -- 44
2019-06-14 14:00:00 18.5 28 Noroeste 48 Noroeste 0 -- -- 55
2019-06-14 13:00:00 17.6 31 Noroeste 46 Noroeste 0 -- -- 61
2019-06-14 12:00:00 16.1 19 Noroeste 28 Noroeste 0 -- -- 74
2019-06-14 11:00:00 14.3 17 Noroeste 31 Noroeste 0 -- -- 82
2019-06-14 10:00:00 12.9 18 Noroeste 28 Noroeste 0 -- -- 87
2019-06-14 09:00:00 11.4 10 Norte 15 Noroeste 0 -- -- 98
2019-06-14 08:00:00 10.6 3 Norte 29 Noroeste 0 -- -- 99
2019-06-14 07:00:00 10.4 9 Noroeste 32 Norte 0 -- -- 99
2019-06-14 06:00:00 10.7 19 Norte 25 Norte 0 -- -- 97
2019-06-14 05:00:00 13.3 6 Noroeste 21 Norte 0.2 -- -- 79
2019-06-14 04:00:00 12.9 13 Norte 34 Nordeste 0.2 -- -- 93
2019-06-14 03:00:00 11 13 Este 35 Noroeste 2.2 -- -- 100
2019-06-14 02:00:00 11.2 20 Norte 28 Norte 0.6 -- -- 100
2019-06-14 01:00:00 11.5 15 Noroeste 23 Noroeste 0 -- -- 99
2019-06-14 00:00:00 11.8 3 Sudeste 13 Noroeste 0 -- -- 99
2019-06-13 23:00:00 11.6 11 Noroeste 21 Norte 0 -- -- 99
2019-06-13 22:00:00 12.5 5 Sudoeste 16 Sur 0 -- -- 97
2019-06-13 21:00:00 12.8 4 Sudoeste 16 Noroeste 0 -- -- 96
2019-06-13 20:00:00 15.5 5 Sudoeste 13 Sur 0 -- -- 82
2019-06-13 19:00:00 19.1 12 Noroeste 23 Noroeste 0 -- -- 70
2019-06-13 18:00:00 20.9 12 Noroeste 23 Noroeste 0 -- -- 63
2019-06-13 17:00:00 20.4 12 Noroeste 28 Noroeste 0 -- -- 63
2019-06-13 16:00:00 21.7 16 Noroeste 28 Noroeste 0 -- -- 59
2019-06-13 15:00:00 20.8 16 Noroeste 26 Noroeste 0 -- -- 59
2019-06-13 14:00:00 21.8 14 Oeste 25 Oeste 0 -- -- 48
2019-06-13 13:00:00 20.7 12 Noroeste 24 Noroeste 0 -- -- 49
2019-06-13 12:00:00 18.7 13 Oeste 22 Oeste 0 -- -- 51
2019-06-13 11:00:00 16.7 9 Sudoeste 17 Sudoeste 0 -- -- 58
2019-06-13 10:00:00 15.7 5 Sur 15 Sur 0 -- -- 55
2019-06-13 09:00:00 14.5 6 Sur 11 Sudeste 0 -- -- 58
2019-06-13 08:00:00 11.5 6 Este 13 Sur 0 -- -- 62
2019-06-13 07:00:00 11.3 5 Sudeste 13 Sur 0 -- -- 62
2019-06-13 06:00:00 12.4 4 Sudeste 8 Sudeste 0 -- -- 59
2019-06-13 05:00:00 13.1 6 Este 21 Este 0 -- -- 64
2019-06-13 04:00:00 10.4 6 Sudeste 12 Sudeste 0 -- -- 73
2019-06-13 03:00:00 10.7 6 Sudeste 22 Este 0 -- -- 82
2019-06-13 02:00:00 10.3 4 Este 15 Sur 0 -- -- 81
2019-06-13 01:00:00 9.4 4 Sur 13 Sudeste 0 -- -- 94
2019-06-13 00:00:00 9.7 6 Sudeste 12 Sudeste 0 -- -- 96
2019-06-12 23:00:00 11 3 Nordeste 6 Noroeste 0 -- -- 89
2019-06-12 22:00:00 12.1 2 Noroeste 7 Noroeste 0 -- -- 84
2019-06-12 21:00:00 16.6 8 Noroeste 13 Noroeste 0 -- -- 69
2019-06-12 20:00:00 18.3 2 Sudeste 14 Oeste 0 -- -- 59
2019-06-12 19:00:00 16.3 9 Sudoeste 23 Oeste 0 -- -- 66
2019-06-12 18:00:00 18.8 14 Noroeste 31 Oeste 0 -- -- 62
2019-06-12 17:00:00 18.7 21 Noroeste 34 Noroeste 0 -- -- 62
2019-06-12 16:00:00 18.7 22 Noroeste 38 Noroeste 0 -- -- 60
2019-06-12 15:00:00 18.7 18 Noroeste 28 Noroeste 0 -- -- 58
2019-06-12 14:00:00 17 12 Noroeste 22 Oeste 0 -- -- 59
2019-06-12 13:00:00 15.4 13 Oeste 27 Oeste 0 -- -- 63
2019-06-12 12:00:00 14.9 13 Sudoeste 24 Sudoeste 0 -- -- 66
2019-06-12 11:00:00 12.5 9 Sur 17 Sur 0 -- -- 78
2019-06-12 10:00:00 10.8 6 Sur 14 Sur 0 -- -- 89
2019-06-12 09:00:00 9.8 5 Sudeste 13 Sur 0 -- -- 98
2019-06-12 08:00:00 8.5 8 Sur 18 Sudeste 0 -- -- 100
2019-06-12 07:00:00 8.7 5 Sudeste 19 Sudeste 0 -- -- 99
2019-06-12 06:00:00 9.1 4 Sudeste 19 Sudeste 0 -- -- 99
2019-06-12 05:00:00 9.4 6 Sudeste 17 Sudeste 0 -- -- 99
2019-06-12 04:00:00 9.7 7 Sudeste 21 Sur 0 -- -- 98
2019-06-12 03:00:00 10 7 Sudeste 22 Sur 0 -- -- 97
2019-06-12 02:00:00 9.8 12 Sudeste 23 Sudeste 0 -- -- 90
2019-06-12 01:00:00 10.5 5 Sudeste 15 Sur 0 -- -- 84
2019-06-12 00:00:00 13.2 9 Sur 14 Sur 0 -- -- 67
2019-06-11 23:00:00 15.1 4 Sur 31 Nordeste 0 -- -- 45
2019-06-11 22:00:00 16.1 22 Nordeste 36 Nordeste 0 -- -- 43
2019-06-11 21:00:00 17.6 26 Nordeste 46 Nordeste 0 -- -- 40
2019-06-11 20:00:00 19 24 Este 41 Nordeste 0 -- -- 37
2019-06-11 19:00:00 21.1 10 Noroeste 30 Noroeste 0 -- -- 35
2019-06-11 18:00:00 20.8 21 Noroeste 34 Noroeste 0 -- -- 35
2019-06-11 17:00:00 24.4 22 Noroeste 44 Noroeste 0 -- -- 31
2019-06-11 16:00:00 23.2 30 Noroeste 43 Noroeste 0 -- -- 33
2019-06-11 15:00:00 22.2 27 Noroeste 40 Noroeste 0 -- -- 34
2019-06-11 14:00:00 21.9 22 Noroeste 35 Noroeste 0 -- -- 31
2019-06-11 13:00:00 19.9 21 Noroeste 37 Noroeste 0 -- -- 29
2019-06-11 12:00:00 19.5 13 Oeste 23 Oeste 0 -- -- 26
2019-06-11 11:00:00 17.9 10 Oeste 19 Oeste 0 -- -- 26
2019-06-11 10:00:00 16.8 6 Noroeste 15 Noroeste 0 -- -- 33
2019-06-11 09:00:00 15.3 3 Noroeste 8 Noroeste 0 -- -- 36
2019-06-11 08:00:00 13.5 2 Norte 6 Nordeste 0 -- -- 42
2019-06-11 07:00:00 12.1 4 Norte 9 Nordeste 0 -- -- 47
2019-06-11 06:00:00 12 7 Nordeste 10 Nordeste 0 -- -- 47
2019-06-11 05:00:00 12.5 3 Nordeste 10 Norte 0 -- -- 47
2019-06-11 04:00:00 13.1 7 Norte 16 Norte 0 -- -- 46
2019-06-11 03:00:00 13.8 12 Norte 16 Norte 0 -- -- 44
2019-06-11 02:00:00 14 12 Norte 14 Norte 0 -- -- 44
2019-06-11 01:00:00 14 9 Norte 14 Nordeste 0 -- -- 44
2019-06-11 00:00:00 13.8 6 Sudeste 12 Oeste 0 -- -- 39
2019-06-10 23:00:00 14.1 4 Norte 23 Este 0 -- -- 36
2019-06-10 22:00:00 15.7 10 Este 23 Sudeste 0 -- -- 33
2019-06-10 21:00:00 17.6 12 Noroeste 28 Noroeste 0 -- -- 41
2019-06-10 20:00:00 19.5 23 Noroeste 35 Noroeste 0 -- -- 37
2019-06-10 19:00:00 20.7 22 Noroeste 33 Oeste 0 -- -- 37
2019-06-10 18:00:00 21 24 Noroeste 42 Noroeste 0 -- -- 36
2019-06-10 17:00:00 21.1 24 Noroeste 43 Noroeste 0 -- -- 37
2019-06-10 16:00:00 20.5 24 Noroeste 40 Noroeste 0 -- -- 38
2019-06-10 15:00:00 20.5 26 Noroeste 38 Noroeste 0 -- -- 39
2019-06-10 14:00:00 21.1 21 Noroeste 38 Noroeste 0 -- -- 38
2019-06-10 13:00:00 21 6 Noroeste 27 Sudoeste 0 -- -- 33
2019-06-10 12:00:00 19.2 8 Oeste 22 Oeste 0 -- -- 33
2019-06-10 11:00:00 17.7 11 Oeste 21 Oeste 0 -- -- 37
2019-06-10 10:00:00 16.6 8 Oeste 13 Oeste 0 -- -- 38
2019-06-10 09:00:00 15.5 4 Oeste 8 Oeste 0 -- -- 35
2019-06-10 08:00:00 13.7 3 Sur 6 Nordeste 0 -- -- 36
2019-06-10 07:00:00 13.4 4 Este 15 Sudeste 0 -- -- 35
2019-06-10 06:00:00 13.3 6 Sudeste 15 Este 0 -- -- 36
2019-06-10 05:00:00 13.6 8 Este 32 Nordeste 0 -- -- 38
2019-06-10 04:00:00 14.1 16 Nordeste 32 Nordeste 0 -- -- 42
2019-06-10 03:00:00 14.2 12 Este 21 Este 0 -- -- 41
2019-06-10 02:00:00 14.5 8 Nordeste 23 Nordeste 0 -- -- 40
2019-06-10 01:00:00 14.6 15 Este 24 Nordeste 0 -- -- 45
2019-06-10 00:00:00 14.8 3 Este 9 Sudoeste 0 -- -- 54
2019-06-09 23:00:00 14.5 4 Nordeste 7 Nordeste 0 -- -- 59
2019-06-09 22:00:00 14.4 3 Oeste 16 Noroeste 0 -- -- 71
2019-06-09 21:00:00 17 10 Noroeste 24 Norte 0 -- -- 69
2019-06-09 20:00:00 20.2 18 Noroeste 31 Noroeste 0 -- -- 61
2019-06-09 19:00:00 20.9 25 Noroeste 37 Noroeste 0 -- -- 59
2019-06-09 18:00:00 21.6 23 Noroeste 39 Noroeste 0 -- -- 58
2019-06-09 17:00:00 20.9 22 Noroeste 35 Noroeste 0 -- -- 59
2019-06-09 16:00:00 20.6 21 Noroeste 39 Noroeste 0 -- -- 58
2019-06-09 15:00:00 21.5 21 Noroeste 33 Noroeste 0 -- -- 56
2019-06-09 14:00:00 21 21 Noroeste 31 Noroeste 0 -- -- 57
2019-06-09 13:00:00 18.4 15 Noroeste 27 Noroeste 0 -- -- 57
2019-06-09 12:00:00 18.3 14 Noroeste 24 Noroeste 0 -- -- 57
2019-06-09 11:00:00 15.8 13 Noroeste 18 Noroeste 0 -- -- 68
2019-06-09 10:00:00 14.9 3 Noroeste 14 Noroeste 0 -- -- 77
2019-06-09 09:00:00 14.4 6 Noroeste 10 Noroeste 0 -- -- 79
2019-06-09 08:00:00 13 10 Norte 16 Norte 0 -- -- 81
2019-06-09 07:00:00 12 8 Norte 12 Norte 0 -- -- 79
2019-06-09 06:00:00 12.3 4 Este 10 Este 0 -- -- 78
2019-06-09 05:00:00 10.9 3 Norte 8 Norte 0 -- -- 89
2019-06-09 04:00:00 11.7 3 Noroeste 11 Sudoeste 0 -- -- 83
2019-06-09 03:00:00 12.9 4 Sudeste 14 Este 0 -- -- 77
2019-06-09 02:00:00 11.7 2 Este 8 Norte 0 -- -- 89
2019-06-09 01:00:00 12.1 0 Calma 9 Sudeste 0 -- -- 87
2019-06-09 00:00:00 12.2 5 Sudeste 9 Sudeste 0 -- -- 85
2019-06-08 23:00:00 12.2 4 Sudeste 8 Este 0 -- -- 85
2019-06-08 22:00:00 13 0 Calma 5 Sudoeste 0 -- -- 82
2019-06-08 21:00:00 14.9 3 Sudoeste 15 Sudoeste 0 -- -- 73
2019-06-08 20:00:00 17.9 9 Sudoeste 17 Noroeste 0 -- -- 64
2019-06-08 19:00:00 20 13 Noroeste 23 Noroeste 0 -- -- 66
2019-06-08 18:00:00 20.9 13 Noroeste 26 Noroeste 0 -- -- 60
2019-06-08 17:00:00 22 17 Noroeste 30 Noroeste 0 -- -- 52
2019-06-08 16:00:00 20.7 15 Oeste 30 Oeste 0 -- -- 48
2019-06-08 15:00:00 21.2 16 Oeste 36 Sudoeste 0 -- -- 38
2019-06-08 14:00:00 21.1 9 Sudoeste 26 Sur 0 -- -- 34
2019-06-08 13:00:00 20.2 15 Sur 29 Sur 0 -- -- 34
2019-06-08 12:00:00 19.8 13 Sur 28 Sur 0 -- -- 34
2019-06-08 11:00:00 18.5 13 Sur 25 Sur 0 -- -- 36
2019-06-08 10:00:00 16.9 10 Sur 22 Sur 0 -- -- 37
2019-06-08 09:00:00 17.6 8 Sudeste 19 Sudeste 0 -- -- 37
2019-06-08 08:00:00 14.8 8 Sudeste 19 Sudeste 0 -- -- 41
2019-06-08 07:00:00 13.5 8 Sudeste 22 Sudeste 0 -- -- 50
2019-06-08 06:00:00 13 10 Sudeste 20 Sur 0 -- -- 50
2019-06-08 05:00:00 12.3 7 Sudeste 23 Sur 0 -- -- 58
2019-06-08 04:00:00 13.1 10 Sudeste 21 Sur 0 -- -- 56
2019-06-08 03:00:00 13.3 9 Sudeste 19 Sudeste 0 -- -- 56
2019-06-08 02:00:00 13.9 9 Sur 18 Sur 0 -- -- 60
2019-06-08 01:00:00 15 7 Sudeste 15 Sudeste 0 -- -- 56
2019-06-08 00:00:00 15.3 6 Sudeste 11 Sudeste 0 -- -- 56
2019-06-07 23:00:00 15.3 6 Sudeste 11 Sudeste 0 -- -- 58
2019-06-07 22:00:00 15.7 6 Sudeste 10 Sudeste 0 -- -- 62
2019-06-07 21:00:00 20.1 2 Norte 14 Noroeste 0 -- -- 49
2019-06-07 20:00:00 22.1 12 Noroeste 20 Noroeste 0 -- -- 45
2019-06-07 19:00:00 22.3 12 Noroeste 27 Noroeste 0 -- -- 43
2019-06-07 18:00:00 21.8 16 Noroeste 31 Noroeste 0 -- -- 43
2019-06-07 17:00:00 21.4 18 Noroeste 29 Oeste 0 -- -- 44
2019-06-07 16:00:00 22.2 16 Noroeste 33 Noroeste 0 -- -- 39
2019-06-07 15:00:00 22 20 Noroeste 38 Norte 0 -- -- 41
2019-06-07 14:00:00 20.7 18 Noroeste 33 Oeste 0 -- -- 41
2019-06-07 13:00:00 20.4 18 Noroeste 36 Noroeste 0 -- -- 37
2019-06-07 12:00:00 18.3 16 Norte 31 Noroeste 0 -- -- 38
2019-06-07 11:00:00 17.5 15 Noroeste 26 Noroeste 0 -- -- 35
2019-06-07 10:00:00 15.7 15 Noroeste 22 Noroeste 0 -- -- 38
2019-06-07 09:00:00 14.4 9 Noroeste 17 Noroeste 0 -- -- 36
2019-06-07 08:00:00 12.8 7 Norte 21 Norte 0 -- -- 35
2019-06-07 07:00:00 12.4 15 Norte 22 Norte 0 -- -- 32
2019-06-07 06:00:00 12.1 15 Norte 22 Noroeste 0 -- -- 34
2019-06-07 05:00:00 12.5 18 Norte 25 Norte 0 -- -- 34
2019-06-07 04:00:00 12.1 17 Norte 22 Norte 0 -- -- 35
2019-06-07 03:00:00 12.1 17 Noroeste 31 Norte 0 -- -- 30
2019-06-07 02:00:00 12.6 14 Norte 22 Norte 0 -- -- 23
2019-06-07 01:00:00 14 18 Norte 26 Norte 0 -- -- 21
2019-06-07 00:00:00 13.2 13 Norte 22 Noroeste 0 -- -- 26
2019-06-06 23:00:00 15 14 Norte 21 Norte 0 -- -- 13
2019-06-06 22:00:00 14.3 6 Norte 20 Norte 0 -- -- 32
2019-06-06 21:00:00 16.7 16 Norte 23 Noroeste 0 -- -- 36
2019-06-06 20:00:00 19.1 21 Noroeste 33 Norte 0 -- -- 34
2019-06-06 19:00:00 20.5 24 Noroeste 31 Noroeste 0 -- -- 32
2019-06-06 18:00:00 19.8 18 Noroeste 34 Noroeste 0 -- -- 33
2019-06-06 17:00:00 21.2 19 Noroeste 38 Noroeste 0 -- -- 32
2019-06-06 16:00:00 20 25 Noroeste 40 Noroeste 0 -- -- 33
2019-06-06 15:00:00 19.7 24 Noroeste 41 Noroeste 0 -- -- 35
2019-06-06 14:00:00 18.5 26 Noroeste 41 Noroeste 0 -- -- 35
2019-06-06 13:00:00 17.9 21 Noroeste 36 Noroeste 0 -- -- 40
2019-06-06 12:00:00 17 18 Oeste 28 Oeste 0 -- -- 29
2019-06-06 11:00:00 16.1 4 Nordeste 11 Oeste 0 -- -- 30
2019-06-06 10:00:00 14 6 Oeste 15 Sur 0 -- -- 37
2019-06-06 09:00:00 13.4 5 Sur 15 Sudeste 0 -- -- 37
2019-06-06 08:00:00 11.5 5 Sudeste 14 Sudeste 0 -- -- 38
2019-06-06 07:00:00 10.4 6 Sudeste 13 Sudeste 0 -- -- 37
2019-06-06 06:00:00 10.7 6 Sudeste 13 Este 0 -- -- 35
2019-06-06 05:00:00 11 8 Sudeste 14 Sudeste 0 -- -- 36
2019-06-06 04:00:00 11.4 7 Sudeste 13 Sudeste 0 -- -- 38
2019-06-06 03:00:00 11.5 7 Sudeste 12 Sudeste 0 -- -- 39
2019-06-06 02:00:00 12.5 5 Sudeste 9 Sudeste 0 -- -- 37
2019-06-06 01:00:00 12.5 7 Este 13 Este 0 -- -- 38
2019-06-06 00:00:00 12.1 6 Sudeste 11 Este 0 -- -- 39
2019-06-05 23:00:00 12.7 6 Este 13 Este 0 -- -- 39
2019-06-05 22:00:00 12.8 6 Este 9 Este 0 -- -- 39
2019-06-05 21:00:00 14.1 3 Sur 18 Noroeste 0 -- -- 40
2019-06-05 20:00:00 17.4 9 Noroeste 18 Oeste 0 -- -- 31
2019-06-05 19:00:00 18 6 Nordeste 27 Norte 0 -- -- 29
2019-06-05 18:00:00 19.1 14 Norte 37 Noroeste 0 -- -- 25
2019-06-05 17:00:00 21 17 Noroeste 34 Oeste 0 -- -- 32
2019-06-05 16:00:00 19.8 19 Noroeste 33 Noroeste 0 -- -- 36
2019-06-05 15:00:00 20.3 16 Norte 36 Norte 0 -- -- 23
2019-06-05 14:00:00 18.3 22 Nordeste 38 Nordeste 0 -- -- 19
2019-06-05 13:00:00 17.9 18 Nordeste 32 Noroeste 0 -- -- 20
2019-06-05 12:00:00 16.7 23 Noroeste 31 Noroeste 0 -- -- 41
2019-06-05 11:00:00 15.1 18 Noroeste 32 Noroeste 0 -- -- 40
2019-06-05 10:00:00 13.9 19 Noroeste 37 Noroeste 0 -- -- 47
2019-06-05 09:00:00 12.2 16 Noroeste 35 Norte 0 -- -- 53
2019-06-05 08:00:00 11.3 26 Norte 41 Norte 0 -- -- 60
2019-06-05 07:00:00 11.4 26 Norte 37 Norte 0 -- -- 69
2019-06-05 06:00:00 11.7 19 Noroeste 35 Noroeste 0 -- -- 69
2019-06-05 05:00:00 13.1 26 Norte 43 Norte 0 -- -- 64
2019-06-05 04:00:00 14.1 21 Noroeste 45 Noroeste 0 -- -- 56
2019-06-05 03:00:00 14.9 22 Noroeste 32 Noroeste 0 -- -- 55
2019-06-05 02:00:00 16.1 23 Norte 33 Norte 0 -- -- 49
2019-06-05 01:00:00 15.9 26 Norte 32 Noroeste 0 -- -- 51
2019-06-05 00:00:00 15.9 23 Norte 30 Norte 0 -- -- 50
2019-06-04 23:00:00 16.3 15 Norte 20 Norte 0 -- -- 45
2019-06-04 22:00:00 16 15 Norte 20 Noroeste 0 -- -- 43
2019-06-04 21:00:00 19.3 12 Noroeste 25 Noroeste 0 -- -- 37
2019-06-04 20:00:00 24 18 Noroeste 27 Noroeste 0 -- -- 30
2019-06-04 19:00:00 25.9 19 Noroeste 30 Norte 0 -- -- 30
2019-06-04 18:00:00 25.3 23 Noroeste 35 Noroeste 0 -- -- 30
2019-06-04 17:00:00 24.9 23 Noroeste 37 Noroeste 0 -- -- 28
2019-06-04 16:00:00 25.7 24 Noroeste 40 Noroeste 0 -- -- 29
2019-06-04 15:00:00 25.2 29 Noroeste 41 Noroeste 0 -- -- 28
2019-06-04 14:00:00 24.5 25 Noroeste 44 Noroeste 0 -- -- 26
2019-06-04 13:00:00 24.1 24 Noroeste 43 Noroeste 0 -- -- 26
2019-06-04 12:00:00 22.5 23 Noroeste 39 Noroeste 0 -- -- 25
2019-06-04 11:00:00 21.2 18 Noroeste 30 Noroeste 0 -- -- 25
2019-06-04 10:00:00 19.7 10 Noroeste 25 Norte 0 -- -- 27
2019-06-04 09:00:00 18.7 18 Norte 27 Norte 0 -- -- 27
2019-06-04 08:00:00 16.9 16 Norte 23 Norte 0 -- -- 26
2019-06-04 07:00:00 16.3 17 Norte 24 Norte 0 -- -- 29
2019-06-04 06:00:00 15.8 12 Norte 20 Norte 0 -- -- 33
2019-06-04 05:00:00 16.5 15 Norte 20 Norte 0 -- -- 29
2019-06-04 04:00:00 16.3 13 Nordeste 18 Norte 0 -- -- 29
2019-06-04 03:00:00 16.8 13 Norte 19 Norte 0 -- -- 31
2019-06-04 02:00:00 17 6 Norte 15 Noroeste 0 -- -- 30
2019-06-04 01:00:00 17.7 2 Este 8 Nordeste 0 -- -- 30
2019-06-04 00:00:00 18.7 3 Este 7 Este 0 -- -- 26
2019-06-03 23:00:00 18.8 5 Nordeste 9 Nordeste 0 -- -- 28
2019-06-03 22:00:00 18.8 3 Este 7 Sudeste 0 -- -- 30
2019-06-03 21:00:00 21.3 4 Sudeste 16 Noroeste 0 -- -- 38
2019-06-03 20:00:00 23.9 13 Noroeste 22 Noroeste 0 -- -- 37
2019-06-03 19:00:00 24.6 15 Noroeste 21 Noroeste 0 -- -- 36
2019-06-03 18:00:00 22.4 14 Noroeste 23 Oeste 0 -- -- 38
2019-06-03 17:00:00 24.5 12 Noroeste 23 Noroeste 0 -- -- 38
2019-06-03 16:00:00 26.5 15 Noroeste 26 Oeste 0 -- -- 31
2019-06-03 15:00:00 24.3 15 Noroeste 26 Oeste 0 -- -- 38
2019-06-03 14:00:00 26 15 Noroeste 28 Noroeste 0 -- -- 30
2019-06-03 13:00:00 23.7 13 Oeste 21 Oeste 0 -- -- 30
2019-06-03 12:00:00 23 11 Oeste 17 Noroeste 0 -- -- 31
2019-06-03 11:00:00 22.3 6 Sudoeste 14 Sudoeste 0 -- -- 31
2019-06-03 10:00:00 21 3 Oeste 9 Oeste 0 -- -- 34
2019-06-03 09:00:00 21 3 Sur 10 Sudeste 0 -- -- 33
2019-06-03 08:00:00 19.2 4 Sudeste 10 Sudeste 0 -- -- 32
2019-06-03 07:00:00 18.4 8 Este 11 Sudeste 0 -- -- 29
2019-06-03 06:00:00 18.4 9 Este 13 Este 0 -- -- 27
2019-06-03 05:00:00 18.6 5 Este 12 Este 0 -- -- 23
2019-06-03 04:00:00 17.7 6 Este 12 Este 0 -- -- 28
2019-06-03 03:00:00 16.8 0 Calma 4 Noroeste 0 -- -- 34
2019-06-03 02:00:00 16 3 Nordeste 5 Nordeste 0 -- -- 39
2019-06-03 01:00:00 16.3 2 Sudeste 8 Sur 0 -- -- 36
2019-06-03 00:00:00 16.9 2 Este 11 Sudeste 0 -- -- 35
2019-06-02 23:00:00 16.5 6 Sudeste 10 Sudeste 0 -- -- 34
2019-06-02 22:00:00 16.7 4 Sudeste 8 Sudeste 0 -- -- 35
2019-06-02 21:00:00 20.3 2 Sudoeste 8 Sudoeste 0 -- -- 29
2019-06-02 20:00:00 21.5 4 Sudoeste 12 Sudoeste 0 -- -- 28
2019-06-02 19:00:00 22.7 6 Sudoeste 21 Sudoeste 0 -- -- 26
2019-06-02 18:00:00 23.1 10 Sudoeste 22 Sudoeste 0 -- -- 26
2019-06-02 17:00:00 22.5 14 Sudoeste 30 Oeste 0 -- -- 26
2019-06-02 16:00:00 23.3 12 Sudoeste 26 Sudoeste 0 -- -- 22
2019-06-02 15:00:00 23.6 13 Sudoeste 26 Oeste 0 -- -- 23
2019-06-02 14:00:00 22.2 10 Sudoeste 23 Sudoeste 0 -- -- 21
2019-06-02 13:00:00 22.2 12 Oeste 21 Oeste 0 -- -- 23
2019-06-02 12:00:00 21.9 9 Sur 20 Noroeste 0 -- -- 20
2019-06-02 11:00:00 19.9 8 Oeste 15 Oeste 0 -- -- 23
2019-06-02 10:00:00 18.1 7 Sudoeste 15 Sudoeste 0 -- -- 27
2019-06-02 09:00:00 17.6 6 Sur 10 Sur 0 -- -- 16
2019-06-02 08:00:00 15.3 5 Sudeste 13 Sudeste 0 -- -- 20
2019-06-02 07:00:00 14.5 8 Sudeste 15 Sudeste 0 -- -- 17
2019-06-02 06:00:00 14.2 9 Sudeste 14 Sudeste 0 -- -- 16
2019-06-02 05:00:00 13.8 5 Sudeste 13 Sudeste 0 -- -- 20
2019-06-02 04:00:00 14.4 4 Sudeste 16 Sudeste 0 -- -- 26
2019-06-02 03:00:00 13.7 5 Sudeste 20 Sur 0 -- -- 29
2019-06-02 02:00:00 12.9 7 Sur 18 Sur 0 -- -- 40
2019-06-02 01:00:00 13.1 8 Sur 22 Sur 0 -- -- 38
2019-06-02 00:00:00 14.4 9 Sur 25 Sudeste 0 -- -- 36
2019-06-01 23:00:00 13.2 9 Sur 18 Sur 0 -- -- 46
2019-06-01 22:00:00 13.2 8 Sudeste 15 Sur 0 -- -- 47
2019-06-01 21:00:00 17.7 3 Sur 13 Sur 0 -- -- 37
2019-06-01 20:00:00 20.5 4 Sur 14 Sudoeste 0 -- -- 31
2019-06-01 19:00:00 20 9 Sudoeste 21 Sudoeste 0 -- -- 32
2019-06-01 18:00:00 21.1 9 Oeste 26 Oeste 0 -- -- 33
2019-06-01 17:00:00 21.9 14 Noroeste 28 Sur 0 -- -- 33
2019-06-01 16:00:00 22.7 10 Sur 25 Sur 0 -- -- 25
2019-06-01 15:00:00 21.1 12 Sudoeste 26 Sudoeste 0 -- -- 26
2019-06-01 14:00:00 19.9 14 Sudoeste 28 Sudoeste 0 -- -- 28
2019-06-01 13:00:00 19.9 14 Sudoeste 31 Sur 0 -- -- 29
2019-06-01 12:00:00 19.2 14 Sur 31 Sur 0 -- -- 32
2019-06-01 11:00:00 18.2 12 Sur 24 Sudoeste 0 -- -- 34
2019-06-01 10:00:00 16.6 13 Sur 23 Sur 0 -- -- 42
2019-06-01 09:00:00 14.6 13 Sur 22 Sur 0 -- -- 48
2019-06-01 08:00:00 14.1 10 Sur 18 Sur 0 -- -- 33
2019-06-01 07:00:00 12.5 6 Sudeste 21 Sur 0 -- -- 40
2019-06-01 06:00:00 13.2 6 Sudeste 19 Sudeste 0 -- -- 38
2019-06-01 05:00:00 13.1 6 Sudeste 16 Sudeste 0 -- -- 36
2019-06-01 04:00:00 12 5 Sur 11 Sur 0 -- -- 52
2019-06-01 03:00:00 11.9 4 Nordeste 11 Sur 0 -- -- 48
2019-06-01 02:00:00 14.9 6 Sur 27 Sudeste 0 -- -- 18
2019-06-01 01:00:00 13.6 7 Sudeste 19 Sudeste 0 -- -- 24
2019-06-01 00:00:00 11.4 8 Sudeste 22 Sudeste 0 -- -- 54
2019-05-31 23:00:00 12.8 10 Sudeste 21 Sur 0 -- -- 50
2019-05-31 22:00:00 13.9 10 Sudeste 25 Este 0 -- -- 47
2019-05-31 21:00:00 15.9 5 Sudeste 23 Sudeste 0 -- -- 47
2019-05-31 20:00:00 18.1 9 Sur 30 Sur 0 -- -- 41
2019-05-31 19:00:00 19.6 10 Sur 30 Sur 0 -- -- 36
2019-05-31 18:00:00 20.2 12 Sur 32 Sur 0 -- -- 34
2019-05-31 17:00:00 20.6 14 Sur 32 Sur 0 -- -- 33
2019-05-31 16:00:00 20.9 12 Sur 33 Sur 0 -- -- 32
2019-05-31 15:00:00 19.8 15 Sur 40 Sur 0 -- -- 34
2019-05-31 14:00:00 20.7 15 Sur 35 Sudoeste 0 -- -- 30
2019-05-31 13:00:00 19.8 15 Sur 41 Sur 0 -- -- 30
2019-05-31 12:00:00 18.4 17 Sur 35 Sur 0 -- -- 36
2019-05-31 11:00:00 17.6 14 Sur 33 Sur 0 -- -- 37
2019-05-31 10:00:00 16.4 8 Sur 25 Sur 0 -- -- 38
2019-05-31 09:00:00 13.5 14 Sur 24 Sur 0 -- -- 45
2019-05-31 08:00:00 12 11 Sur 24 Sur 0 -- -- 44
2019-05-31 07:00:00 12.1 7 Sudeste 19 Sudeste 0 -- -- 39
2019-05-31 06:00:00 12.4 6 Sudeste 16 Sudeste 0 -- -- 39
2019-05-31 05:00:00 11.8 6 Sudeste 18 Este 0 -- -- 41
2019-05-31 04:00:00 11.7 5 Sudeste 17 Sur 0 -- -- 41
2019-05-31 03:00:00 10 3 Sudeste 15 Sudeste 0 -- -- 52
2019-05-31 02:00:00 11.4 5 Sudeste 14 Sudeste 0 -- -- 46
2019-05-31 01:00:00 12.5 5 Sur 21 Este 0 -- -- 40
2019-05-31 00:00:00 11.6 7 Sudeste 24 Sudeste 0 -- -- 46
2019-05-30 23:00:00 11.4 9 Sudeste 22 Sudeste 0 -- -- 51
2019-05-30 22:00:00 11.2 9 Sudeste 23 Sur 0 -- -- 62
2019-05-30 21:00:00 13.7 10 Sur 27 Sur 0 -- -- 55
2019-05-30 20:00:00 16.4 11 Sur 23 Sudeste 0 -- -- 46
2019-05-30 19:00:00 18.3 10 Sur 24 Sur 0 -- -- 36
2019-05-30 18:00:00 18.1 9 Sudoeste 27 Sudoeste 0 -- -- 34
2019-05-30 17:00:00 19.2 11 Sur 33 Sur 0 -- -- 34
2019-05-30 16:00:00 18 13 Sur 30 Sur 0 -- -- 39
2019-05-30 15:00:00 17.6 15 Sur 31 Sudoeste 0 -- -- 38
2019-05-30 14:00:00 17.1 16 Sudoeste 28 Sur 0 -- -- 37
2019-05-30 13:00:00 16.8 14 Sur 27 Sudoeste 0 -- -- 42
2019-05-30 12:00:00 15.8 10 Sur 27 Sudeste 0 -- -- 46
2019-05-30 11:00:00 14.3 12 Sur 27 Sur 0 -- -- 45
2019-05-30 10:00:00 13 11 Sur 23 Sur 0 -- -- 48
2019-05-30 09:00:00 11.9 7 Sur 17 Sur 0 -- -- 56
2019-05-30 08:00:00 9.5 8 Sudeste 18 Sur 0 -- -- 68
2019-05-30 07:00:00 8.1 8 Sur 17 Sur 0 -- -- 75
2019-05-30 06:00:00 7.6 5 Sur 13 Sudoeste 0 -- -- 81
2019-05-30 05:00:00 8.4 6 Sudoeste 14 Sur 0 -- -- 77
2019-05-30 04:00:00 11.5 3 Oeste 9 Este 0 -- -- 59
2019-05-30 03:00:00 12.4 4 Este 10 Este 0 -- -- 63
2019-05-30 02:00:00 13.3 3 Nordeste 10 Nordeste 0 -- -- 60
2019-05-30 01:00:00 13.6 3 Sudeste 13 Sudeste 0 -- -- 63
2019-05-30 00:00:00 13 7 Sudeste 17 Este 0 -- -- 57
2019-05-29 23:00:00 11.1 4 Sudeste 17 Sudeste 0 -- -- 78
2019-05-29 22:00:00 11.5 4 Sudeste 9 Sudeste 0 -- -- 81
2019-05-29 21:00:00 13.9 3 Sudoeste 13 Oeste 0 -- -- 71
2019-05-29 20:00:00 16.2 7 Oeste 21 Sudoeste 0 -- -- 69
2019-05-29 19:00:00 18.2 10 Oeste 23 Noroeste 0 -- -- 64
2019-05-29 18:00:00 19.5 14 Noroeste 25 Noroeste 0 -- -- 63
2019-05-29 17:00:00 20.5 16 Noroeste 30 Noroeste 0 -- -- 61
2019-05-29 16:00:00 19.2 16 Noroeste 36 Noroeste 0 -- -- 63
2019-05-29 15:00:00 18.7 22 Noroeste 38 Norte 0 -- -- 60
2019-05-29 14:00:00 19 22 Noroeste 34 Noroeste 0 -- -- 54
2019-05-29 13:00:00 18.7 19 Noroeste 32 Oeste 0 -- -- 61
2019-05-29 12:00:00 17.3 12 Noroeste 24 Noroeste 0 -- -- 62
2019-05-29 11:00:00 16.3 8 Noroeste 18 Oeste 0 -- -- 65
2019-05-29 10:00:00 14.5 5 Sudoeste 12 Oeste 0 -- -- 74
2019-05-29 09:00:00 13 5 Sur 10 Sur 0 -- -- 79
2019-05-29 08:00:00 11.1 4 Sudeste 8 Sudoeste 0 -- -- 85
2019-05-29 07:00:00 11.4 2 Este 10 Sur 0 -- -- 66
2019-05-29 06:00:00 12.8 7 Sur 10 Sur 0 -- -- 61
2019-05-29 05:00:00 13.3 8 Sudeste 13 Sur 0 -- -- 60
2019-05-29 04:00:00 15.3 4 Sudeste 9 Sudeste 0 -- -- 49
2019-05-29 03:00:00 16.7 2 Nordeste 7 Sur 0 -- -- 47
2019-05-29 02:00:00 16.8 2 Nordeste 17 Sudoeste 0 -- -- 46
2019-05-29 01:00:00 17.8 14 Nordeste 31 Este 0 -- -- 45
2019-05-29 00:00:00 18.4 10 Este 15 Este 0 -- -- 42
2019-05-28 23:00:00 18 6 Este 13 Este 0 -- -- 48
2019-05-28 22:00:00 17.4 2 Sudeste 7 Sudeste 0 -- -- 62
2019-05-28 21:00:00 20.3 2 Sudeste 12 Oeste 0 -- -- 54
2019-05-28 20:00:00 21.1 6 Noroeste 14 Oeste 0 -- -- 51
2019-05-28 19:00:00 22.7 8 Noroeste 18 Noroeste 0 -- -- 47
2019-05-28 18:00:00 23.4 14 Noroeste 27 Oeste 0 -- -- 45
2019-05-28 17:00:00 22.1 19 Noroeste 28 Noroeste 0 -- -- 47
2019-05-28 16:00:00 23.1 20 Noroeste 32 Noroeste 0 -- -- 44
2019-05-28 15:00:00 23.5 20 Noroeste 37 Noroeste 0 -- -- 42
2019-05-28 14:00:00 23.3 19 Noroeste 35 Noroeste 0 -- -- 39
2019-05-28 13:00:00 22.6 20 Noroeste 34 Noroeste 0 -- -- 38
2019-05-28 12:00:00 22.1 20 Noroeste 29 Noroeste 0 -- -- 39
2019-05-28 11:00:00 21.4 15 Noroeste 26 Noroeste 0 -- -- 37
2019-05-28 10:00:00 20.2 10 Oeste 14 Oeste 0 -- -- 39
2019-05-28 09:00:00 19.2 0 Calma 15 Nordeste 0 -- -- 41
2019-05-28 08:00:00 17.3 13 Nordeste 25 Nordeste 0 -- -- 44
2019-05-28 07:00:00 16.5 15 Nordeste 21 Nordeste 0 -- -- 45
2019-05-28 06:00:00 16.5 13 Nordeste 21 Nordeste 0 -- -- 45
2019-05-28 05:00:00 17.3 18 Nordeste 28 Nordeste 0 -- -- 43
2019-05-28 04:00:00 17.6 21 Norte 32 Norte 0 -- -- 41
2019-05-28 03:00:00 17.3 21 Norte 26 Norte 0 -- -- 42
2019-05-28 02:00:00 16.9 19 Nordeste 24 Nordeste 0 -- -- 43
2019-05-28 01:00:00 16.7 15 Nordeste 24 Nordeste 0 -- -- 43
2019-05-28 00:00:00 17.2 12 Nordeste 19 Norte 0 -- -- 42
2019-05-27 23:00:00 17.3 8 Norte 12 Norte 0 -- -- 41
2019-05-27 22:00:00 17.6 9 Nordeste 21 Nordeste 0 -- -- 41
2019-05-27 21:00:00 17.2 8 Norte 24 Norte 0 -- -- 41
2019-05-27 20:00:00 18.1 21 Noroeste -- -- -- -- -- 40
2019-05-27 19:00:00 22.3 26 Norte 36 Noroeste 0 -- -- 35
2019-05-27 18:00:00 22.6 28 Noroeste 42 Noroeste 0 -- -- 34
2019-05-27 17:00:00 22.6 30 Noroeste 42 Noroeste 0 -- -- 35
2019-05-27 16:00:00 21.9 27 Noroeste 38 Noroeste 0 -- -- 36
2019-05-27 15:00:00 22.4 24 Noroeste 39 Noroeste 0 -- -- 37
2019-05-27 14:00:00 21.8 22 Noroeste 38 Oeste 0 -- -- 37
2019-05-27 13:00:00 21 22 Noroeste 37 Noroeste 0 -- -- 38
2019-05-27 12:00:00 21.6 16 Noroeste 35 Noroeste 0 -- -- 35
2019-05-27 11:00:00 18.4 18 Noroeste 28 Noroeste 0 -- -- 40
2019-05-27 10:00:00 17.6 15 Nordeste 27 Norte 0 -- -- 41
2019-05-27 09:00:00 15.7 20 Nordeste 33 Nordeste 0 -- -- 43
2019-05-27 08:00:00 14.3 30 Nordeste 40 Nordeste 0 -- -- 44
2019-05-27 07:00:00 13.7 25 Nordeste 33 Este 0 -- -- 45
2019-05-27 06:00:00 13.9 17 Este 29 Nordeste 0 -- -- 42
2019-05-27 05:00:00 13.2 6 Este 15 Sur 0 -- -- 42
2019-05-27 04:00:00 13.5 8 Nordeste 27 Nordeste 0 -- -- 41
2019-05-27 03:00:00 13.4 5 Nordeste 12 Nordeste 0 -- -- 40
2019-05-27 02:00:00 12.4 6 Norte 15 Noroeste 0 -- -- 43
2019-05-27 01:00:00 13 5 Sudoeste 19 Oeste 0 -- -- 42
2019-05-27 00:00:00 13.8 8 Norte 22 Norte 0 -- -- 35
2019-05-26 23:00:00 12.7 5 Norte 28 Nordeste 0 -- -- 48
2019-05-26 22:00:00 13.4 6 Sudeste 15 Este 0 -- -- 45
2019-05-26 21:00:00 13 8 Noroeste 21 Noroeste 0 -- -- 67
2019-05-26 20:00:00 16.7 18 Noroeste 32 Noroeste 0 -- -- 57
2019-05-26 19:00:00 16.5 22 Noroeste 38 Noroeste 0 -- -- 58
2019-05-26 18:00:00 16.6 26 Noroeste 41 Noroeste 0 -- -- 57
2019-05-26 17:00:00 17.1 30 Noroeste 48 Noroeste 0 -- -- 58
2019-05-26 16:00:00 17.1 29 Noroeste 49 Noroeste 0 -- -- 56
2019-05-26 15:00:00 15.5 30 Noroeste 48 Noroeste 0 -- -- 60
2019-05-26 14:00:00 16.3 26 Noroeste 40 Noroeste 0 -- -- 61
2019-05-26 13:00:00 15.7 22 Noroeste 38 Oeste 0 -- -- 61
2019-05-26 12:00:00 14.4 21 Noroeste 36 Noroeste 0 -- -- 67
2019-05-26 11:00:00 14 13 Oeste 24 Noroeste 0 -- -- 67
2019-05-26 10:00:00 12.8 7 Oeste 12 Oeste 0 -- -- 71
2019-05-26 09:00:00 11.6 4 Noroeste 12 Norte 0 -- -- 77
2019-05-26 08:00:00 9 6 Norte 10 Norte 0 -- -- 85
2019-05-26 07:00:00 9.5 0 Calma 4 Sudeste 0 -- -- 77
2019-05-26 06:00:00 9 0 Calma 6 Sudeste 0 -- -- 82
2019-05-26 05:00:00 9.6 4 Este 8 Noroeste 0 -- -- 80
2019-05-26 04:00:00 9.9 2 Norte 4 Sudeste 0 -- -- 78
2019-05-26 03:00:00 10.3 4 Sudeste 10 Sudeste 0 -- -- 73
2019-05-26 02:00:00 9.6 0 Calma 11 Este 0 -- -- 76
2019-05-26 01:00:00 10 4 Este 8 Sudeste 0 -- -- 84
2019-05-26 00:00:00 9.9 4 Este 12 Sudeste 0 -- -- 85
2019-05-25 23:00:00 9.4 5 Sudeste 9 Sudeste 0 -- -- 95
2019-05-25 22:00:00 9.3 0 Calma 5 Sur 0 -- -- 94
2019-05-25 21:00:00 10.6 0 Calma 12 Oeste 0 -- -- 87
2019-05-25 20:00:00 12.1 4 Sudoeste 12 Oeste 0 -- -- 79
2019-05-25 19:00:00 13.3 6 Oeste 31 Noroeste 0 -- -- 72
2019-05-25 18:00:00 15.7 21 Noroeste 31 Noroeste 0 -- -- 64
2019-05-25 17:00:00 13.9 19 Noroeste 35 Noroeste 0 -- -- 66
2019-05-25 16:00:00 16.3 21 Noroeste 32 Noroeste 0 -- -- 57
2019-05-25 15:00:00 13.5 14 Noroeste 28 Norte 0 -- -- 63
2019-05-25 14:00:00 14.1 13 Noroeste 33 Noroeste 0 -- -- 60
2019-05-25 13:00:00 13 16 Noroeste 30 Noroeste 0 -- -- 65
2019-05-25 12:00:00 13.7 16 Noroeste 26 Noroeste 0 -- -- 68
2019-05-25 11:00:00 12.6 12 Oeste 22 Oeste 0 -- -- 70
2019-05-25 10:00:00 10.4 4 Noroeste 14 Noroeste 0 -- -- 68
2019-05-25 09:00:00 8.4 8 Noroeste 14 Noroeste 0 -- -- 73
2019-05-25 08:00:00 8.5 2 Oeste 9 Sur 0 -- -- 75
2019-05-25 07:00:00 7.4 2 Sudoeste 9 Sudoeste 0 -- -- 76
2019-05-25 06:00:00 6.6 5 Noroeste 10 Noroeste 0 -- -- 84
2019-05-25 05:00:00 7.4 3 Sur 10 Sur 0 -- -- 84
2019-05-25 04:00:00 7.7 8 Sur 12 Sur 0 -- -- 91
2019-05-25 03:00:00 7.6 7 Sur 17 Sur 0 -- -- 86
2019-05-25 02:00:00 10.6 9 Nordeste 13 Sur 0 -- -- 80
2019-05-25 01:00:00 9.8 5 Este 24 Nordeste 0 -- -- 91
2019-05-25 00:00:00 12.8 14 Nordeste 19 Nordeste 0 -- -- 63